createdAt,value
2023-05-01T00:00:05.340Z,94515.00
2023-05-01T00:01:03.205Z,94511.00
2023-05-01T00:02:03.214Z,94513.00
2023-05-01T00:03:03.417Z,94509.00
2023-05-01T00:04:03.329Z,94513.00
2023-05-01T00:05:03.333Z,94509.00
2023-05-01T00:06:03.296Z,94507.00
2023-05-01T00:07:03.279Z,94505.00
2023-05-01T00:08:03.282Z,94505.00
2023-05-01T00:09:03.312Z,94505.00
2023-05-01T00:10:03.385Z,94503.00
2023-05-01T00:11:03.363Z,94503.00
2023-05-01T00:12:03.353Z,94503.00
2023-05-01T00:13:03.389Z,94505.00
2023-05-01T00:14:03.438Z,94505.00
2023-05-01T00:15:03.479Z,94505.00
2023-05-01T00:16:03.525Z,94505.00
2023-05-01T00:17:03.499Z,94505.00
2023-05-01T00:18:03.691Z,94501.00
2023-05-01T00:19:03.600Z,94497.00
2023-05-01T00:20:03.627Z,94497.00
2023-05-01T00:21:03.634Z,94497.00
2023-05-01T00:22:03.707Z,94503.00
2023-05-01T00:23:03.720Z,94497.00
2023-05-01T00:24:03.736Z,94497.00
2023-05-01T00:25:03.761Z,94495.00
2023-05-01T00:26:03.774Z,94495.00
2023-05-01T00:27:03.745Z,94495.00
2023-05-01T00:28:03.751Z,94497.00
2023-05-01T00:29:03.729Z,94493.00
2023-05-01T00:30:03.727Z,94493.00
2023-05-01T00:31:03.737Z,94493.00
2023-05-01T00:32:03.842Z,94489.00
2023-05-01T00:33:03.885Z,94491.00
2023-05-01T00:34:03.767Z,94489.00
2023-05-01T00:35:03.809Z,94491.00
2023-05-01T00:36:03.772Z,94493.00
2023-05-01T00:37:03.795Z,94493.00
2023-05-01T00:38:03.770Z,94491.00
2023-05-01T00:39:03.792Z,94489.00
2023-05-01T00:40:03.786Z,94491.00
2023-05-01T00:41:03.809Z,94489.00
2023-05-01T00:42:03.783Z,94489.00
2023-05-01T00:43:03.793Z,94487.00
2023-05-01T00:44:03.786Z,94489.00
2023-05-01T00:45:03.796Z,94489.00
2023-05-01T00:46:03.822Z,94489.00
2023-05-01T00:47:03.808Z,94489.00
2023-05-01T00:48:04.760Z,94491.00
2023-05-01T00:49:03.766Z,94493.00
2023-05-01T00:50:03.867Z,94493.00
2023-05-01T00:51:03.778Z,94491.00
2023-05-01T00:52:03.786Z,94491.00
2023-05-01T00:53:03.770Z,94489.00
2023-05-01T00:54:03.826Z,94489.00
2023-05-01T00:55:03.864Z,94489.00
2023-05-01T00:56:03.807Z,94489.00
2023-05-01T00:57:03.857Z,94487.00
2023-05-01T00:58:03.858Z,94487.00
2023-05-01T00:59:03.882Z,94485.00
2023-05-01T01:00:03.872Z,94483.00
2023-05-01T01:01:03.964Z,94483.00
2023-05-01T01:02:03.942Z,94483.00
2023-05-01T01:03:04.009Z,94481.00
2023-05-01T01:04:04.020Z,94485.00
2023-05-01T01:05:04.034Z,94483.00
2023-05-01T01:06:04.054Z,94485.00
2023-05-01T01:07:04.053Z,94485.00
2023-05-01T01:08:04.070Z,94485.00
2023-05-01T01:09:04.071Z,94483.00
2023-05-01T01:10:04.078Z,94483.00
2023-05-01T01:11:04.111Z,94483.00
2023-05-01T01:12:04.142Z,94483.00
2023-05-01T01:13:04.143Z,94479.00
2023-05-01T01:14:04.149Z,94481.00
2023-05-01T01:15:04.129Z,94477.00
2023-05-01T01:16:04.137Z,94479.00
2023-05-01T01:17:04.413Z,94477.00
2023-05-01T01:18:04.151Z,94479.00
2023-05-01T01:19:04.124Z,94473.00
2023-05-01T01:20:04.140Z,94479.00
2023-05-01T01:21:04.146Z,94475.00
2023-05-01T01:22:04.129Z,94475.00
2023-05-01T01:23:04.150Z,94475.00
2023-05-01T01:24:04.125Z,94473.00
2023-05-01T01:25:04.128Z,94471.00
2023-05-01T01:26:04.162Z,94470.00
2023-05-01T01:27:04.132Z,94470.00
2023-05-01T01:28:04.135Z,94468.00
2023-05-01T01:29:04.162Z,94466.00
2023-05-01T01:30:04.175Z,94466.00
2023-05-01T01:31:04.239Z,94468.00
2023-05-01T01:32:04.213Z,94468.00
2023-05-01T01:33:04.318Z,94468.00
2023-05-01T01:34:04.290Z,94466.00
2023-05-01T01:35:04.270Z,94470.00
2023-05-01T01:36:04.275Z,94468.00
2023-05-01T01:37:04.278Z,94468.00
2023-05-01T01:38:04.294Z,94466.00
2023-05-01T01:39:04.292Z,94462.00
2023-05-01T01:40:04.302Z,94462.00
2023-05-01T01:41:04.329Z,94460.00
2023-05-01T01:42:04.369Z,94462.00
2023-05-01T01:43:04.337Z,94462.00
2023-05-01T01:44:04.365Z,94468.00
2023-05-01T01:45:04.384Z,94466.00
2023-05-01T01:46:04.430Z,94462.00
2023-05-01T01:47:04.391Z,94468.00
2023-05-01T01:48:04.515Z,94460.00
2023-05-01T01:49:04.389Z,94458.00
2023-05-01T01:50:04.386Z,94458.00
2023-05-01T01:51:04.394Z,94456.00
2023-05-01T01:52:04.382Z,94456.00
2023-05-01T01:53:04.391Z,94458.00
2023-05-01T01:54:04.411Z,94456.00
2023-05-01T01:55:04.401Z,94456.00
2023-05-01T01:56:04.424Z,94456.00
2023-05-01T01:57:04.429Z,94456.00
2023-05-01T01:58:04.405Z,94456.00
2023-05-01T01:59:04.451Z,94454.00
2023-05-01T02:00:04.436Z,94456.00
2023-05-01T02:01:04.440Z,94454.00
2023-05-01T02:02:04.488Z,94456.00
2023-05-01T02:03:04.515Z,94452.00
2023-05-01T02:04:04.473Z,94452.00
2023-05-01T02:05:04.431Z,94452.00
2023-05-01T02:06:04.497Z,94452.00
2023-05-01T02:07:04.468Z,94452.00
2023-05-01T02:08:04.463Z,94448.00
2023-05-01T02:09:04.453Z,94448.00
2023-05-01T02:10:04.480Z,94448.00
2023-05-01T02:11:04.508Z,94448.00
2023-05-01T02:12:04.525Z,94450.00
2023-05-01T02:13:04.509Z,94452.00
2023-05-01T02:14:04.485Z,94444.00
2023-05-01T02:15:04.497Z,94444.00
2023-05-01T02:16:04.573Z,94442.00
2023-05-01T02:17:04.531Z,94442.00
2023-05-01T02:18:04.569Z,94440.00
2023-05-01T02:19:04.519Z,94438.00
2023-05-01T02:20:04.525Z,94438.00
2023-05-01T02:21:04.629Z,94438.00
2023-05-01T02:22:04.577Z,94436.00
2023-05-01T02:23:04.545Z,94438.00
2023-05-01T02:24:04.552Z,94436.00
2023-05-01T02:25:04.546Z,94438.00
2023-05-01T02:26:04.549Z,94436.00
2023-05-01T02:27:04.618Z,94436.00
2023-05-01T02:28:04.560Z,94436.00
2023-05-01T02:29:04.546Z,94436.00
2023-05-01T02:30:04.582Z,94430.00
2023-05-01T02:31:04.583Z,94434.00
2023-05-01T02:32:04.673Z,94432.00
2023-05-01T02:33:04.608Z,94432.00
2023-05-01T02:34:04.564Z,94432.00
2023-05-01T02:35:04.559Z,94430.00
2023-05-01T02:36:04.577Z,94430.00
2023-05-01T02:37:04.745Z,94428.00
2023-05-01T02:38:04.579Z,94426.00
2023-05-01T02:39:04.582Z,94428.00
2023-05-01T02:40:04.606Z,94428.00
2023-05-01T02:41:04.597Z,94428.00
2023-05-01T02:42:04.582Z,94424.00
2023-05-01T02:43:04.588Z,94423.00
2023-05-01T02:44:04.578Z,94424.00
2023-05-01T02:45:04.622Z,94423.00
2023-05-01T02:46:04.730Z,94423.00
2023-05-01T02:47:04.605Z,94421.00
2023-05-01T02:48:04.646Z,94419.00
2023-05-01T02:49:04.611Z,94419.00
2023-05-01T02:50:04.609Z,94417.00
2023-05-01T02:51:04.653Z,94419.00
2023-05-01T02:52:04.637Z,94421.00
2023-05-01T02:53:04.701Z,94417.00
2023-05-01T02:54:04.635Z,94419.00
2023-05-01T02:55:04.629Z,94419.00
2023-05-01T02:56:04.666Z,94419.00
2023-05-01T02:57:04.663Z,94419.00
2023-05-01T02:58:04.674Z,94421.00
2023-05-01T02:59:04.680Z,94421.00
2023-05-01T03:00:04.679Z,94419.00
2023-05-01T03:01:04.713Z,94419.00
2023-05-01T03:02:04.676Z,94417.00
2023-05-01T03:03:04.737Z,94415.00
2023-05-01T03:04:04.765Z,94413.00
2023-05-01T03:05:04.711Z,94411.00
2023-05-01T03:06:04.773Z,94411.00
2023-05-01T03:07:04.714Z,94411.00
2023-05-01T03:08:04.725Z,94413.00
2023-05-01T03:09:04.737Z,94409.00
2023-05-01T03:10:04.753Z,94407.00
2023-05-01T03:11:04.759Z,94409.00
2023-05-01T03:12:04.731Z,94407.00
2023-05-01T03:13:04.736Z,94407.00
2023-05-01T03:14:04.736Z,94405.00
2023-05-01T03:15:04.778Z,94407.00
2023-05-01T03:16:04.880Z,94409.00
2023-05-01T03:17:04.737Z,94407.00
2023-05-01T03:18:04.856Z,94407.00
2023-05-01T03:19:04.744Z,94405.00
2023-05-01T03:20:04.776Z,94405.00
2023-05-01T03:21:04.740Z,94403.00
2023-05-01T03:22:04.778Z,94401.00
2023-05-01T03:23:04.783Z,94393.00
2023-05-01T03:24:04.771Z,94393.00
2023-05-01T03:25:04.810Z,94393.00
2023-05-01T03:26:04.789Z,94401.00
2023-05-01T03:27:04.796Z,94401.00
2023-05-01T03:28:04.800Z,94401.00
2023-05-01T03:29:04.821Z,94401.00
2023-05-01T03:30:04.839Z,94401.00
2023-05-01T03:31:04.847Z,94393.00
2023-05-01T03:32:04.858Z,94391.00
2023-05-01T03:33:04.891Z,94391.00
2023-05-01T03:34:04.837Z,94389.00
2023-05-01T03:35:04.845Z,94391.00
2023-05-01T03:36:04.950Z,94391.00
2023-05-01T03:37:04.845Z,94389.00
2023-05-01T03:38:04.839Z,94389.00
2023-05-01T03:39:04.867Z,94387.00
2023-05-01T03:40:04.916Z,94389.00
2023-05-01T03:41:04.865Z,94391.00
2023-05-01T03:42:04.932Z,94391.00
2023-05-01T03:43:04.898Z,94385.00
2023-05-01T03:44:04.908Z,94385.00
2023-05-01T03:45:04.915Z,94387.00
2023-05-01T03:46:04.961Z,94385.00
2023-05-01T03:47:04.991Z,94381.00
2023-05-01T03:48:04.970Z,94383.00
2023-05-01T03:49:04.983Z,94385.00
2023-05-01T03:50:04.988Z,94381.00
2023-05-01T03:51:04.997Z,94381.00
2023-05-01T03:52:05.008Z,94379.00
2023-05-01T03:53:05.028Z,94381.00
2023-05-01T03:54:05.039Z,94379.00
2023-05-01T03:55:05.048Z,94381.00
2023-05-01T03:56:05.089Z,94379.00
2023-05-01T03:57:05.105Z,94383.00
2023-05-01T03:58:05.079Z,94383.00
2023-05-01T03:59:05.102Z,94383.00
2023-05-01T04:00:05.107Z,94385.00
2023-05-01T04:01:05.114Z,94381.00
2023-05-01T04:02:05.203Z,94385.00
2023-05-01T04:03:05.342Z,94381.00
2023-05-01T04:04:05.202Z,94379.00
2023-05-01T04:05:05.167Z,94379.00
2023-05-01T04:06:05.285Z,94379.00
2023-05-01T04:07:05.147Z,94378.00
2023-05-01T04:08:05.187Z,94376.00
2023-05-01T04:09:05.184Z,94378.00
2023-05-01T04:10:05.166Z,94378.00
2023-05-01T04:11:05.225Z,94378.00
2023-05-01T04:12:05.186Z,94376.00
2023-05-01T04:13:05.200Z,94376.00
2023-05-01T04:14:05.209Z,94376.00
2023-05-01T04:15:05.235Z,94376.00
2023-05-01T04:16:05.242Z,94376.00
2023-05-01T04:17:05.209Z,94374.00
2023-05-01T04:18:05.306Z,94374.00
2023-05-01T04:19:05.276Z,94376.00
2023-05-01T04:20:05.295Z,94374.00
2023-05-01T04:21:05.315Z,94374.00
2023-05-01T04:22:05.309Z,94374.00
2023-05-01T04:23:05.327Z,94374.00
2023-05-01T04:24:05.325Z,94376.00
2023-05-01T04:25:05.334Z,94374.00
2023-05-01T04:26:05.384Z,94376.00
2023-05-01T04:27:05.380Z,94376.00
2023-05-01T04:28:05.381Z,94374.00
2023-05-01T04:29:05.472Z,94376.00
2023-05-01T04:30:05.396Z,94374.00
2023-05-01T04:31:05.466Z,94374.00
2023-05-01T04:32:05.552Z,94374.00
2023-05-01T04:33:05.428Z,94376.00
2023-05-01T04:34:05.404Z,94376.00
2023-05-01T04:35:05.401Z,94378.00
2023-05-01T04:36:05.423Z,94378.00
2023-05-01T04:37:05.416Z,94376.00
2023-05-01T04:38:05.402Z,94372.00
2023-05-01T04:39:05.386Z,94374.00
2023-05-01T04:40:05.400Z,94372.00
2023-05-01T04:41:05.404Z,94372.00
2023-05-01T04:42:05.436Z,94372.00
2023-05-01T04:43:05.406Z,94372.00
2023-05-01T04:44:05.443Z,94370.00
2023-05-01T04:45:05.441Z,94372.00
2023-05-01T04:46:05.534Z,94372.00
2023-05-01T04:47:05.574Z,94372.00
2023-05-01T04:48:05.520Z,94374.00
2023-05-01T04:49:05.559Z,94374.00
2023-05-01T04:50:05.528Z,94374.00
2023-05-01T04:51:05.550Z,94372.00
2023-05-01T04:52:05.534Z,94374.00
2023-05-01T04:53:05.567Z,94376.00
2023-05-01T04:54:05.640Z,94374.00
2023-05-01T04:55:05.596Z,94376.00
2023-05-01T04:56:05.605Z,94374.00
2023-05-01T04:57:05.641Z,94372.00
2023-05-01T04:58:05.615Z,94374.00
2023-05-01T04:59:05.619Z,94372.00
2023-05-01T05:00:05.603Z,94374.00
2023-05-01T05:01:05.657Z,94374.00
2023-05-01T05:02:05.808Z,94379.00
2023-05-01T05:03:05.715Z,94376.00
2023-05-01T05:04:05.833Z,94378.00
2023-05-01T05:05:05.643Z,94378.00
2023-05-01T05:06:05.708Z,94376.00
2023-05-01T05:07:05.634Z,94378.00
2023-05-01T05:08:05.656Z,94378.00
2023-05-01T05:09:05.629Z,94376.00
2023-05-01T05:10:05.633Z,94376.00
2023-05-01T05:11:05.634Z,94379.00
2023-05-01T05:12:05.651Z,94378.00
2023-05-01T05:13:05.649Z,94378.00
2023-05-01T05:14:05.656Z,94376.00
2023-05-01T05:15:05.675Z,94374.00
2023-05-01T05:16:05.740Z,94374.00
2023-05-01T05:17:05.670Z,94374.00
2023-05-01T05:18:05.736Z,94376.00
2023-05-01T05:19:05.677Z,94379.00
2023-05-01T05:20:05.680Z,94381.00
2023-05-01T05:21:05.697Z,94378.00
2023-05-01T05:22:05.695Z,94376.00
2023-05-01T05:23:06.428Z,94378.00
2023-05-01T05:24:05.711Z,94376.00
2023-05-01T05:25:05.692Z,94376.00
2023-05-01T05:26:05.743Z,94379.00
2023-05-01T05:27:05.726Z,94376.00
2023-05-01T05:28:05.736Z,94378.00
2023-05-01T05:29:05.745Z,94379.00
2023-05-01T05:30:05.759Z,94379.00
2023-05-01T05:31:05.767Z,94378.00
2023-05-01T05:32:05.876Z,94378.00
2023-05-01T05:33:05.881Z,94378.00
2023-05-01T05:34:05.793Z,94378.00
2023-05-01T05:35:05.840Z,94378.00
2023-05-01T05:36:05.834Z,94378.00
2023-05-01T05:37:05.854Z,94374.00
2023-05-01T05:38:05.874Z,94376.00
2023-05-01T05:39:05.880Z,94376.00
2023-05-01T05:40:05.854Z,94376.00
2023-05-01T05:41:05.872Z,94376.00
2023-05-01T05:42:05.910Z,94376.00
2023-05-01T05:43:05.889Z,94376.00
2023-05-01T05:44:05.934Z,94378.00
2023-05-01T05:45:05.896Z,94378.00
2023-05-01T05:46:06.007Z,94379.00
2023-05-01T05:47:06.369Z,94378.00
2023-05-01T05:48:05.992Z,94376.00
2023-05-01T05:49:05.971Z,94378.00
2023-05-01T05:50:05.993Z,94378.00
2023-05-01T05:51:05.960Z,94376.00
2023-05-01T05:52:05.991Z,94379.00
2023-05-01T05:53:05.987Z,94378.00
2023-05-01T05:54:06.015Z,94381.00
2023-05-01T05:55:05.986Z,94379.00
2023-05-01T05:56:06.003Z,94381.00
2023-05-01T05:57:06.028Z,94379.00
2023-05-01T05:58:06.038Z,94381.00
2023-05-01T05:59:06.017Z,94381.00
2023-05-01T06:00:06.055Z,94379.00
2023-05-01T06:01:06.049Z,94379.00
2023-05-01T06:02:06.113Z,94378.00
2023-05-01T06:03:06.135Z,94379.00
2023-05-01T06:04:06.082Z,94379.00
2023-05-01T06:05:06.182Z,94379.00
2023-05-01T06:06:06.357Z,94381.00
2023-05-01T06:07:06.137Z,94378.00
2023-05-01T06:08:06.154Z,94381.00
2023-05-01T06:09:06.138Z,94379.00
2023-05-01T06:10:06.158Z,94381.00
2023-05-01T06:11:06.186Z,94379.00
2023-05-01T06:12:06.185Z,94379.00
2023-05-01T06:13:13.625Z,94383.00
2023-05-01T06:14:07.168Z,94383.00
2023-05-01T06:15:06.235Z,94381.00
2023-05-01T06:16:06.186Z,94379.00
2023-05-01T06:17:06.207Z,94378.00
2023-05-01T06:18:06.196Z,94378.00
2023-05-01T06:19:06.126Z,94378.00
2023-05-01T06:20:06.113Z,94376.00
2023-05-01T06:21:06.121Z,94378.00
2023-05-01T06:22:06.129Z,94378.00
2023-05-01T06:23:06.118Z,94379.00
2023-05-01T06:24:06.123Z,94376.00
2023-05-01T06:25:06.086Z,94378.00
2023-05-01T06:26:06.130Z,94376.00
2023-05-01T06:27:06.062Z,94374.00
2023-05-01T06:28:06.059Z,94372.00
2023-05-01T06:29:06.081Z,94370.00
2023-05-01T06:30:06.039Z,94372.00
2023-05-01T06:31:06.068Z,94370.00
2023-05-01T06:32:06.075Z,94368.00
2023-05-01T06:33:06.111Z,94368.00
2023-05-01T06:34:06.009Z,94364.00
2023-05-01T06:35:06.009Z,94362.00
2023-05-01T06:36:06.012Z,94368.00
2023-05-01T06:37:05.995Z,94366.00
2023-05-01T06:38:05.996Z,94368.00
2023-05-01T06:39:05.990Z,94368.00
2023-05-01T06:40:05.996Z,94368.00
2023-05-01T06:41:05.981Z,94368.00
2023-05-01T06:42:05.981Z,94370.00
2023-05-01T06:43:05.972Z,94370.00
2023-05-01T06:44:05.947Z,94370.00
2023-05-01T06:45:05.966Z,94368.00
2023-05-01T06:46:05.944Z,94372.00
2023-05-01T06:47:06.055Z,94370.00
2023-05-01T06:48:06.022Z,94368.00
2023-05-01T06:49:05.906Z,94368.00
2023-05-01T06:50:06.108Z,94370.00
2023-05-01T06:51:05.891Z,94372.00
2023-05-01T06:52:05.921Z,94370.00
2023-05-01T06:53:05.989Z,94372.00
2023-05-01T06:54:05.871Z,94370.00
2023-05-01T06:55:05.868Z,94370.00
2023-05-01T06:56:05.890Z,94368.00
2023-05-01T06:57:05.859Z,94368.00
2023-05-01T06:58:15.930Z,94366.00
2023-05-01T06:59:06.849Z,94368.00
2023-05-01T07:00:05.836Z,94366.00
2023-05-01T07:01:05.863Z,94366.00
2023-05-01T07:02:05.884Z,94366.00
2023-05-01T07:03:05.849Z,94366.00
2023-05-01T07:04:05.848Z,94366.00
2023-05-01T07:05:05.806Z,94366.00
2023-05-01T07:06:05.845Z,94366.00
2023-05-01T07:07:05.790Z,94366.00
2023-05-01T07:08:05.816Z,94366.00
2023-05-01T07:09:05.787Z,94366.00
2023-05-01T07:10:05.772Z,94368.00
2023-05-01T07:11:05.773Z,94366.00
2023-05-01T07:12:05.824Z,94368.00
2023-05-01T07:13:05.767Z,94370.00
2023-05-01T07:14:05.744Z,94372.00
2023-05-01T07:15:05.730Z,94372.00
2023-05-01T07:16:05.759Z,94370.00
2023-05-01T07:17:05.730Z,94370.00
2023-05-01T07:18:05.810Z,94368.00
2023-05-01T07:19:05.701Z,94368.00
2023-05-01T07:20:05.705Z,94370.00
2023-05-01T07:21:05.703Z,94370.00
2023-05-01T07:22:05.699Z,94370.00
2023-05-01T07:23:07.409Z,94372.00
2023-05-01T07:24:05.667Z,94374.00
2023-05-01T07:25:05.681Z,94370.00
2023-05-01T07:26:05.740Z,94370.00
2023-05-01T07:27:05.788Z,94372.00
2023-05-01T07:28:05.787Z,94370.00
2023-05-01T07:29:05.812Z,94372.00
2023-05-01T07:30:05.824Z,94368.00
2023-05-01T07:31:05.889Z,94368.00
2023-05-01T07:32:05.965Z,94368.00
2023-05-01T07:33:06.016Z,94366.00
2023-05-01T07:34:05.964Z,94362.00
2023-05-01T07:35:06.015Z,94362.00
2023-05-01T07:36:06.033Z,94364.00
2023-05-01T07:37:06.074Z,94360.00
2023-05-01T07:38:06.110Z,94358.00
2023-05-01T07:39:06.107Z,94356.00
2023-05-01T07:40:06.107Z,94358.00
2023-05-01T07:41:06.153Z,94356.00
2023-05-01T07:42:06.214Z,94358.00
2023-05-01T07:43:06.181Z,94358.00
2023-05-01T07:44:06.236Z,94358.00
2023-05-01T07:45:06.252Z,94356.00
2023-05-01T07:46:06.323Z,94356.00
2023-05-01T07:47:06.388Z,94358.00
2023-05-01T07:48:06.368Z,94358.00
2023-05-01T07:49:06.390Z,94358.00
2023-05-01T07:50:06.391Z,94356.00
2023-05-01T07:51:06.429Z,94358.00
2023-05-01T07:52:06.525Z,94358.00
2023-05-01T07:53:06.513Z,94360.00
2023-05-01T07:54:06.478Z,94360.00
2023-05-01T07:55:06.532Z,94360.00
2023-05-01T07:56:06.535Z,94360.00
2023-05-01T07:57:06.720Z,94360.00
2023-05-01T07:58:06.605Z,94360.00
2023-05-01T07:59:06.630Z,94358.00
2023-05-01T08:00:06.620Z,94358.00
2023-05-01T08:01:06.655Z,94356.00
2023-05-01T08:02:06.699Z,94358.00
2023-05-01T08:03:06.920Z,94358.00
2023-05-01T08:04:06.850Z,94358.00
2023-05-01T08:05:06.813Z,94358.00
2023-05-01T08:06:07.045Z,94356.00
2023-05-01T08:07:06.900Z,94356.00
2023-05-01T08:08:06.988Z,94354.00
2023-05-01T08:09:06.982Z,94354.00
2023-05-01T08:10:06.982Z,94354.00
2023-05-01T08:11:06.973Z,94354.00
2023-05-01T08:12:07.039Z,94354.00
2023-05-01T08:13:06.976Z,94354.00
2023-05-01T08:14:06.978Z,94354.00
2023-05-01T08:15:06.967Z,94354.00
2023-05-01T08:16:07.020Z,94354.00
2023-05-01T08:17:06.981Z,94354.00
2023-05-01T08:18:07.055Z,94352.00
2023-05-01T08:19:06.993Z,94352.00
2023-05-01T08:20:06.970Z,94352.00
2023-05-01T08:21:06.967Z,94352.00
2023-05-01T08:22:06.949Z,94354.00
2023-05-01T08:23:07.000Z,94354.00
2023-05-01T08:24:06.994Z,94356.00
2023-05-01T08:25:06.967Z,94354.00
2023-05-01T08:26:06.987Z,94356.00
2023-05-01T08:27:07.023Z,94354.00
2023-05-01T08:28:06.999Z,94354.00
2023-05-01T08:29:07.013Z,94354.00
2023-05-01T08:30:07.007Z,94354.00
2023-05-01T08:31:07.039Z,94352.00
2023-05-01T08:32:07.010Z,94352.00
2023-05-01T08:33:07.080Z,94350.00
2023-05-01T08:34:07.040Z,94354.00
2023-05-01T08:35:07.048Z,94354.00
2023-05-01T08:36:07.065Z,94352.00
2023-05-01T08:37:07.121Z,94348.00
2023-05-01T08:38:07.143Z,94346.00
2023-05-01T08:39:07.158Z,94348.00
2023-05-01T08:40:07.234Z,94348.00
2023-05-01T08:41:07.292Z,94346.00
2023-05-01T08:42:07.310Z,94346.00
2023-05-01T08:43:07.952Z,94346.00
2023-05-01T08:44:07.444Z,94344.00
2023-05-01T08:45:07.472Z,94346.00
2023-05-01T08:46:07.707Z,94344.00
2023-05-01T08:47:07.671Z,94344.00
2023-05-01T08:48:07.681Z,94342.00
2023-05-01T08:49:07.614Z,94344.00
2023-05-01T08:50:07.674Z,94342.00
2023-05-01T08:51:07.688Z,94342.00
2023-05-01T08:52:07.745Z,94340.00
2023-05-01T08:53:07.786Z,94338.00
2023-05-01T08:54:07.784Z,94342.00
2023-05-01T08:55:07.822Z,94338.00
2023-05-01T08:56:07.885Z,94338.00
2023-05-01T08:57:10.246Z,94338.00
2023-05-01T08:58:08.168Z,94336.00
2023-05-01T08:59:08.181Z,94336.00
2023-05-01T09:00:08.213Z,94338.00
2023-05-01T09:01:08.271Z,94340.00
2023-05-01T09:02:08.391Z,94336.00
2023-05-01T09:03:08.452Z,94334.00
2023-05-01T09:04:08.388Z,94336.00
2023-05-01T09:05:08.345Z,94334.00
2023-05-01T09:06:08.456Z,94331.00
2023-05-01T09:07:08.384Z,94332.00
2023-05-01T09:08:08.437Z,94331.00
2023-05-01T09:09:08.487Z,94329.00
2023-05-01T09:10:08.494Z,94327.00
2023-05-01T09:11:08.565Z,94329.00
2023-05-01T09:12:08.594Z,94327.00
2023-05-01T09:13:08.652Z,94327.00
2023-05-01T09:14:08.692Z,94325.00
2023-05-01T09:15:08.757Z,94327.00
2023-05-01T09:16:08.819Z,94327.00
2023-05-01T09:17:08.804Z,94327.00
2023-05-01T09:18:08.888Z,94327.00
2023-05-01T09:19:08.880Z,94325.00
2023-05-01T09:20:08.943Z,94323.00
2023-05-01T09:21:08.999Z,94321.00
2023-05-01T09:22:09.025Z,94321.00
2023-05-01T09:23:09.101Z,94321.00
2023-05-01T09:24:09.167Z,94321.00
2023-05-01T09:25:09.207Z,94319.00
2023-05-01T09:26:09.935Z,94319.00
2023-05-01T09:27:09.195Z,94319.00
2023-05-01T09:28:09.240Z,94319.00
2023-05-01T09:29:09.273Z,94315.00
2023-05-01T09:30:09.275Z,94315.00
2023-05-01T09:31:09.308Z,94313.00
2023-05-01T09:32:09.425Z,94313.00
2023-05-01T09:33:09.420Z,94311.00
2023-05-01T09:34:09.456Z,94311.00
2023-05-01T09:35:09.524Z,94307.00
2023-05-01T09:36:09.536Z,94305.00
2023-05-01T09:37:09.567Z,94303.00
2023-05-01T09:38:09.653Z,94301.00
2023-05-01T09:39:09.675Z,94301.00
2023-05-01T09:40:09.730Z,94303.00
2023-05-01T09:41:09.777Z,94301.00
2023-05-01T09:42:09.862Z,94299.00
2023-05-01T09:43:11.211Z,94301.00
2023-05-01T09:44:09.947Z,94301.00
2023-05-01T09:45:09.975Z,94299.00
2023-05-01T09:46:10.085Z,94299.00
2023-05-01T09:47:10.076Z,94299.00
2023-05-01T09:48:10.148Z,94297.00
2023-05-01T09:49:10.162Z,94297.00
2023-05-01T09:50:10.194Z,94297.00
2023-05-01T09:51:10.214Z,94293.00
2023-05-01T09:52:10.259Z,94293.00
2023-05-01T09:53:10.275Z,94293.00
2023-05-01T09:54:10.297Z,94290.00
2023-05-01T09:55:10.344Z,94287.00
2023-05-01T09:56:10.348Z,94287.00
2023-05-01T09:57:10.412Z,94285.00
2023-05-01T09:58:10.439Z,94284.00
2023-05-01T09:59:10.474Z,94285.00
2023-05-01T10:00:10.533Z,94284.00
2023-05-01T10:01:10.543Z,94284.00
2023-05-01T10:02:10.602Z,94284.00
2023-05-01T10:03:10.637Z,94280.00
2023-05-01T10:04:10.681Z,94280.00
2023-05-01T10:05:10.670Z,94278.00
2023-05-01T10:06:10.713Z,94276.00
2023-05-01T10:07:10.700Z,94278.00
2023-05-01T10:08:10.729Z,94272.00
2023-05-01T10:09:10.749Z,94274.00
2023-05-01T10:10:10.779Z,94272.00
2023-05-01T10:11:10.786Z,94270.00
2023-05-01T10:12:10.789Z,94268.00
2023-05-01T10:13:10.867Z,94268.00
2023-05-01T10:14:10.858Z,94268.00
2023-05-01T10:15:23.847Z,94266.00
2023-05-01T10:16:11.881Z,94264.00
2023-05-01T10:17:11.084Z,94266.00
2023-05-01T10:18:10.983Z,94266.00
2023-05-01T10:19:10.859Z,94264.00
2023-05-01T10:20:10.851Z,94264.00
2023-05-01T10:21:10.864Z,94264.00
2023-05-01T10:22:10.837Z,94262.00
2023-05-01T10:23:10.873Z,94262.00
2023-05-01T10:24:10.834Z,94262.00
2023-05-01T10:25:10.805Z,94262.00
2023-05-01T10:26:10.831Z,94260.00
2023-05-01T10:27:10.844Z,94262.00
2023-05-01T10:28:10.913Z,94258.00
2023-05-01T10:29:10.918Z,94258.00
2023-05-01T10:30:10.935Z,94258.00
2023-05-01T10:31:11.051Z,94254.00
2023-05-01T10:32:10.995Z,94252.00
2023-05-01T10:33:11.049Z,94250.00
2023-05-01T10:34:11.103Z,94250.00
2023-05-01T10:35:11.104Z,94248.00
2023-05-01T10:36:11.167Z,94246.00
2023-05-01T10:37:11.251Z,94248.00
2023-05-01T10:38:11.216Z,94246.00
2023-05-01T10:39:11.240Z,94244.00
2023-05-01T10:40:11.294Z,94248.00
2023-05-01T10:41:11.297Z,94242.00
2023-05-01T10:42:11.553Z,94246.00
2023-05-01T10:43:11.334Z,94240.00
2023-05-01T10:44:11.372Z,94244.00
2023-05-01T10:45:11.413Z,94240.00
2023-05-01T10:46:11.506Z,94240.00
2023-05-01T10:47:11.431Z,94240.00
2023-05-01T10:48:11.492Z,94240.00
2023-05-01T10:49:11.473Z,94238.00
2023-05-01T10:50:11.525Z,94240.00
2023-05-01T10:51:11.574Z,94237.00
2023-05-01T10:52:11.561Z,94233.00
2023-05-01T10:53:11.662Z,94231.00
2023-05-01T10:54:11.629Z,94237.00
2023-05-01T10:55:11.651Z,94227.00
2023-05-01T10:56:11.647Z,94233.00
2023-05-01T10:57:11.684Z,94231.00
2023-05-01T10:58:11.720Z,94223.00
2023-05-01T10:59:11.777Z,94225.00
2023-05-01T11:00:11.759Z,94217.00
2023-05-01T11:01:11.788Z,94215.00
2023-05-01T11:02:11.855Z,94215.00
2023-05-01T11:03:11.906Z,94219.00
2023-05-01T11:04:11.865Z,94219.00
2023-05-01T11:05:11.930Z,94219.00
2023-05-01T11:06:12.017Z,94215.00
2023-05-01T11:07:12.029Z,94215.00
2023-05-01T11:08:12.465Z,94213.00
2023-05-01T11:09:12.057Z,94211.00
2023-05-01T11:10:12.149Z,94215.00
2023-05-01T11:11:12.136Z,94213.00
2023-05-01T11:12:12.153Z,94213.00
2023-05-01T11:13:12.187Z,94211.00
2023-05-01T11:14:12.190Z,94209.00
2023-05-01T11:15:12.233Z,94209.00
2023-05-01T11:16:12.294Z,94211.00
2023-05-01T11:17:12.324Z,94209.00
2023-05-01T11:18:12.415Z,94209.00
2023-05-01T11:19:12.335Z,94209.00
2023-05-01T11:20:12.387Z,94209.00
2023-05-01T11:21:12.431Z,94209.00
2023-05-01T11:22:12.490Z,94207.00
2023-05-01T11:23:12.556Z,94207.00
2023-05-01T11:24:12.645Z,94207.00
2023-05-01T11:25:12.679Z,94207.00
2023-05-01T11:26:12.770Z,94207.00
2023-05-01T11:27:12.823Z,94205.00
2023-05-01T11:28:12.893Z,94207.00
2023-05-01T11:29:12.952Z,94207.00
2023-05-01T11:30:13.107Z,94201.00
2023-05-01T11:31:13.083Z,94199.00
2023-05-01T11:32:13.178Z,94197.00
2023-05-01T11:33:13.259Z,94199.00
2023-05-01T11:34:13.259Z,94199.00
2023-05-01T11:35:13.290Z,94195.00
2023-05-01T11:36:13.345Z,94193.00
2023-05-01T11:37:13.440Z,94191.00
2023-05-01T11:38:13.496Z,94191.00
2023-05-01T11:39:13.468Z,94191.00
2023-05-01T11:40:13.509Z,94191.00
2023-05-01T11:41:13.706Z,94191.00
2023-05-01T11:42:13.662Z,94190.00
2023-05-01T11:43:13.628Z,94190.00
2023-05-01T11:44:13.710Z,94188.00